createdAt,value
2023-02-22T00:00:19.311Z,4.00
2023-02-22T00:05:53.663Z,2.80
2023-02-22T00:10:57.792Z,2.60
2023-02-22T00:16:02.025Z,2.40
2023-02-22T00:21:10.834Z,2.60
2023-02-22T00:26:18.384Z,2.10
2023-02-22T00:31:22.458Z,3.00
2023-02-22T00:36:25.293Z,2.70
2023-02-22T00:41:29.160Z,2.70
2023-02-22T00:46:31.915Z,2.60
2023-02-22T00:51:34.720Z,1.80
2023-02-22T00:56:37.607Z,2.10
2023-02-22T01:01:40.439Z,1.70
2023-02-22T01:06:44.596Z,1.40
2023-02-22T01:11:48.594Z,1.60
2023-02-22T01:16:51.883Z,1.90
2023-02-22T01:21:54.668Z,2.10
2023-02-22T01:26:57.751Z,1.30
2023-02-22T01:32:01.756Z,2.00
2023-02-22T01:37:06.555Z,2.10
2023-02-22T01:42:09.964Z,2.50
2023-02-22T01:47:12.787Z,1.80
2023-02-22T01:52:19.444Z,2.20
2023-02-22T01:57:30.044Z,1.90
2023-02-22T02:02:33.124Z,1.70
2023-02-22T02:07:38.205Z,1.90
2023-02-22T02:12:47.534Z,2.00
2023-02-22T02:17:55.043Z,1.90
2023-02-22T02:23:17.089Z,2.00
2023-02-22T02:28:38.461Z,2.00
2023-02-22T02:33:50.069Z,2.00
2023-02-22T02:39:20.576Z,2.60
2023-02-22T02:44:40.572Z,1.90
2023-02-22T02:49:52.282Z,2.50
2023-02-22T02:54:56.831Z,2.30
2023-02-22T02:59:59.703Z,2.50
2023-02-22T03:05:24.490Z,2.30
2023-02-22T03:10:43.735Z,2.90
2023-02-22T03:15:46.441Z,2.40
2023-02-22T03:21:36.317Z,2.90
2023-02-22T03:26:45.494Z,2.50
2023-02-22T03:31:56.077Z,2.70
2023-02-22T03:37:03.831Z,2.10
2023-02-22T03:42:11.979Z,2.90
2023-02-22T03:47:21.321Z,3.10
2023-02-22T03:52:24.574Z,2.70
2023-02-22T03:57:36.220Z,2.50
2023-02-22T04:02:39.105Z,2.40
2023-02-22T04:13:21.300Z,2.80
2023-02-22T04:18:24.202Z,2.40
2023-02-22T04:23:27.055Z,2.90
2023-02-22T04:28:29.820Z,4.30
2023-02-22T04:33:32.890Z,2.80
2023-02-22T04:38:35.639Z,3.30
2023-02-22T04:43:38.432Z,3.10
2023-02-22T04:48:41.241Z,2.50
2023-02-22T04:53:44.554Z,3.80
2023-02-22T04:58:47.956Z,3.10
2023-02-22T05:03:50.887Z,3.10
2023-02-22T05:08:53.641Z,3.80
2023-02-22T05:13:56.395Z,3.30
2023-02-22T05:18:59.150Z,3.50
2023-02-22T05:24:01.900Z,3.60
2023-02-22T05:29:05.170Z,3.40
2023-02-22T05:34:08.029Z,4.40
2023-02-22T05:39:10.889Z,4.10
2023-02-22T05:44:13.853Z,2.90
2023-02-22T05:49:16.755Z,3.10
2023-02-22T05:54:21.422Z,3.20
2023-02-22T05:59:24.275Z,3.90
2023-02-22T06:04:27.949Z,3.30
2023-02-22T06:09:30.706Z,4.00
2023-02-22T06:14:33.615Z,3.40
2023-02-22T06:19:36.555Z,2.80
2023-02-22T06:24:39.528Z,3.50
2023-02-22T06:29:46.691Z,3.60
2023-02-22T06:34:49.491Z,3.20
2023-02-22T06:39:53.328Z,3.10
2023-02-22T06:44:56.072Z,13.00
2023-02-22T06:50:01.102Z,8.90
2023-02-22T06:55:04.098Z,11.10
2023-02-22T07:00:07.631Z,9.50
2023-02-22T07:05:13.002Z,7.90
2023-02-22T07:10:25.392Z,5.90
2023-02-22T07:15:30.971Z,7.00
2023-02-22T07:20:34.212Z,5.20
2023-02-22T07:25:37.463Z,5.30
2023-02-22T07:30:40.287Z,4.00
2023-02-22T07:35:48.536Z,4.10
2023-02-22T07:40:51.465Z,10.10
2023-02-22T07:45:56.807Z,4.20
2023-02-22T07:50:59.970Z,2.80
2023-02-22T07:56:09.398Z,4.30
2023-02-22T08:12:16.550Z,3.50
2023-02-22T08:17:22.092Z,2.80
2023-02-22T08:22:29.648Z,3.20
2023-02-22T08:27:33.980Z,3.60
2023-02-22T08:32:36.968Z,2.90
2023-02-22T08:37:56.343Z,2.90
2023-02-22T08:43:00.064Z,3.00
2023-02-22T08:48:03.921Z,4.60
2023-02-22T08:53:08.382Z,4.80
2023-02-22T08:58:13.250Z,4.60
2023-02-22T09:03:16.839Z,4.70
2023-02-22T09:08:21.821Z,4.50
2023-02-22T09:13:24.854Z,5.90
2023-02-22T09:18:43.526Z,6.40
2023-02-22T09:23:48.224Z,7.00
2023-02-22T09:28:51.051Z,5.70
2023-02-22T09:33:54.011Z,5.50
2023-02-22T09:38:58.916Z,4.50
2023-02-22T09:44:18.566Z,5.50
2023-02-22T09:49:47.766Z,5.20
2023-02-22T09:54:57.880Z,4.40
2023-02-22T10:00:13.770Z,4.00
2023-02-22T10:05:39.922Z,3.70
2023-02-22T10:10:52.663Z,3.30
2023-02-22T10:16:24.082Z,5.00
2023-02-22T10:21:43.793Z,5.00
2023-02-22T10:26:54.230Z,5.20
2023-02-22T10:32:01.335Z,3.60
2023-02-22T10:37:31.778Z,3.30
2023-02-22T10:42:35.478Z,4.00
2023-02-22T10:47:38.548Z,3.70
2023-02-22T10:52:43.806Z,3.70
2023-02-22T10:58:07.313Z,3.70
2023-02-22T11:03:19.517Z,4.10
2023-02-22T11:08:32.804Z,3.80
2023-02-22T11:13:40.072Z,3.50
2023-02-22T11:18:46.041Z,3.90
2023-02-22T11:24:03.922Z,3.90
2023-02-22T11:29:20.796Z,4.30
2023-02-22T11:34:37.762Z,3.40
2023-02-22T11:40:09.291Z,3.40
2023-02-22T11:45:28.066Z,5.90
2023-02-22T11:51:19.329Z,3.70
2023-02-22T11:57:00.966Z,4.00
2023-02-22T12:02:30.638Z,3.30
2023-02-22T12:08:19.845Z,3.30
2023-02-22T12:13:33.130Z,2.60
2023-02-22T12:19:41.611Z,3.30
2023-02-22T12:25:29.619Z,2.30
2023-02-22T12:30:41.735Z,2.40
2023-02-22T12:35:51.929Z,2.80
2023-02-22T12:41:24.941Z,2.80
2023-02-22T12:46:40.909Z,3.00
2023-02-22T12:52:20.535Z,3.00
2023-02-22T12:57:45.086Z,2.70
2023-02-22T13:03:18.490Z,3.50
2023-02-22T13:08:34.500Z,3.70
2023-02-22T13:14:12.291Z,3.10
2023-02-22T13:19:38.382Z,3.30
2023-02-22T13:24:59.723Z,3.00
2023-02-22T13:30:03.880Z,2.80
2023-02-22T13:35:21.581Z,3.60
2023-02-22T13:40:52.251Z,2.10
2023-02-22T13:46:22.341Z,2.80
2023-02-22T13:51:49.121Z,2.90
2023-02-22T13:56:54.387Z,2.80
2023-02-22T14:01:59.448Z,3.00
2023-02-22T14:07:25.932Z,3.10
2023-02-22T14:12:29.258Z,3.50
2023-02-22T14:17:32.632Z,2.30
2023-02-22T14:22:35.701Z,3.60
2023-02-22T14:27:43.082Z,3.80
2023-02-22T14:32:49.030Z,3.80
2023-02-22T14:37:55.926Z,3.60
2023-02-22T14:42:58.665Z,5.40
2023-02-22T14:48:17.640Z,4.40
2023-02-22T14:53:26.533Z,4.10
2023-02-22T14:58:47.457Z,3.30
2023-02-22T15:04:01.975Z,4.60
2023-02-22T15:09:28.856Z,4.10
2023-02-22T15:14:44.823Z,4.10
2023-02-22T15:19:49.228Z,3.20
2023-02-22T15:25:01.413Z,3.30
2023-02-22T15:30:28.127Z,4.60
2023-02-22T15:35:33.247Z,4.00
2023-02-22T15:40:36.546Z,3.20
2023-02-22T15:45:43.121Z,3.60
2023-02-22T15:51:04.501Z,2.60
2023-02-22T15:56:13.518Z,4.20
2023-02-22T16:01:19.730Z,12.10
2023-02-22T16:06:38.191Z,5.30
2023-02-22T16:11:46.125Z,11.90
2023-02-22T16:16:50.684Z,10.00
2023-02-22T16:22:02.839Z,14.90
2023-02-22T16:27:26.190Z,13.00
2023-02-22T16:32:30.898Z,9.10
2023-02-22T16:37:34.131Z,5.70
2023-02-22T16:42:36.946Z,4.90
2023-02-22T16:47:46.935Z,5.60
2023-02-22T16:52:53.766Z,5.70
2023-02-22T16:58:01.465Z,6.50
2023-02-22T17:03:06.792Z,8.80
2023-02-22T17:08:09.657Z,11.10
2023-02-22T17:13:23.659Z,12.30
2023-02-22T17:18:33.907Z,10.00
2023-02-22T17:23:36.904Z,10.10
2023-02-22T17:28:41.086Z,8.30
2023-02-22T17:33:47.126Z,9.40
2023-02-22T17:38:50.575Z,7.20
2023-02-22T17:43:54.462Z,7.50
2023-02-22T17:48:57.323Z,7.40
2023-02-22T17:54:03.081Z,10.60
2023-02-22T17:59:09.607Z,9.00
2023-02-22T18:04:12.503Z,6.50
2023-02-22T18:09:17.798Z,6.70
2023-02-22T18:14:20.703Z,7.50
2023-02-22T18:19:24.687Z,7.80
2023-02-22T18:24:27.596Z,10.10
2023-02-22T18:29:30.697Z,7.00
2023-02-22T18:34:34.380Z,7.50
2023-02-22T18:39:42.796Z,6.20
2023-02-22T18:44:45.666Z,6.90
2023-02-22T18:49:48.836Z,11.90
2023-02-22T18:54:57.846Z,11.60
2023-02-22T19:00:00.803Z,15.10
2023-02-22T19:05:06.901Z,15.60
2023-02-22T19:10:11.316Z,8.60
2023-02-22T19:15:14.611Z,10.00
2023-02-22T19:20:18.090Z,6.70
2023-02-22T19:25:23.388Z,7.60
2023-02-22T19:30:28.312Z,12.70
2023-02-22T19:35:31.203Z,6.90
2023-02-22T19:40:34.263Z,6.90
2023-02-22T19:45:40.746Z,9.00
2023-02-22T19:50:49.419Z,7.20
2023-02-22T19:55:52.220Z,5.90
2023-02-22T20:00:55.281Z,6.80
2023-02-22T20:05:58.561Z,9.10
2023-02-22T20:11:01.448Z,8.30
2023-02-22T20:16:04.636Z,10.90
2023-02-22T20:21:09.639Z,7.90
2023-02-22T20:26:16.619Z,11.90
2023-02-22T20:36:25.554Z,7.40
2023-02-22T20:41:34.178Z,7.40
2023-02-22T20:46:37.220Z,5.90
2023-02-22T20:51:40.538Z,6.40
2023-02-22T20:56:46.581Z,7.00
2023-02-22T21:01:50.326Z,6.70
2023-02-22T21:06:53.485Z,6.80
2023-02-22T21:11:56.317Z,6.80
2023-02-22T21:16:59.406Z,6.10
2023-02-22T21:22:08.118Z,6.30
2023-02-22T21:27:12.510Z,5.60
2023-02-22T21:32:15.764Z,6.10
2023-02-22T21:37:18.672Z,4.40
2023-02-22T21:42:21.632Z,7.60
2023-02-22T21:47:24.394Z,8.20
2023-02-22T21:52:27.539Z,7.80
2023-02-22T21:57:30.345Z,8.80
2023-02-22T22:02:33.335Z,6.10
2023-02-22T22:07:36.337Z,6.40
2023-02-22T22:12:41.979Z,10.50
2023-02-22T22:17:47.132Z,14.50
2023-02-22T22:22:49.939Z,10.20
2023-02-22T22:27:52.733Z,10.80
2023-02-22T22:32:55.557Z,11.90
2023-02-22T22:38:00.559Z,16.50
2023-02-22T22:43:06.131Z,14.00
2023-02-22T22:48:09.479Z,22.70
2023-02-22T22:53:13.097Z,17.00
2023-02-22T22:58:15.827Z,17.00
2023-02-22T23:03:18.763Z,13.80
2023-02-22T23:08:29.252Z,12.80
2023-02-22T23:13:33.057Z,11.10
2023-02-22T23:18:36.379Z,16.80
2023-02-22T23:23:41.239Z,15.60
2023-02-22T23:28:46.512Z,10.50
2023-02-22T23:33:49.620Z,9.00
2023-02-22T23:38:52.712Z,9.50
2023-02-22T23:43:57.226Z,7.90
2023-02-22T23:49:01.956Z,7.00
2023-02-22T23:54:08.134Z,8.10
2023-02-22T23:59:12.635Z,9.50
